createdAt,value
2023-04-06T00:00:42.370Z,7.46
2023-04-06T00:03:24.956Z,7.48
2023-04-06T00:05:54.466Z,7.51
2023-04-06T00:08:24.676Z,7.53
2023-04-06T00:10:52.739Z,7.54
2023-04-06T00:13:23.552Z,7.53
2023-04-06T00:15:51.636Z,7.55
2023-04-06T00:18:20.850Z,7.57
2023-04-06T00:20:48.971Z,7.58
2023-04-06T00:23:17.416Z,7.57
2023-04-06T00:25:46.054Z,7.58
2023-04-06T00:28:16.036Z,7.59
2023-04-06T00:30:48.666Z,7.59
2023-04-06T00:33:16.930Z,7.60
2023-04-06T00:35:45.045Z,7.61
2023-04-06T00:38:13.646Z,7.62
2023-04-06T00:40:45.341Z,7.63
2023-04-06T00:43:13.982Z,7.65
2023-04-06T00:45:43.021Z,7.67
2023-04-06T00:48:11.364Z,7.70
2023-04-06T00:50:40.706Z,7.71
2023-04-06T00:53:08.871Z,7.74
2023-04-06T00:55:43.256Z,7.75
2023-04-06T00:58:13.181Z,7.76
2023-04-06T01:00:56.575Z,7.77
2023-04-06T01:03:26.637Z,7.78
2023-04-06T01:05:59.357Z,7.79
2023-04-06T01:08:33.161Z,7.81
2023-04-06T01:11:13.032Z,7.82
2023-04-06T01:13:41.269Z,7.84
2023-04-06T01:16:17.194Z,7.84
2023-04-06T01:18:58.817Z,7.84
2023-04-06T01:21:31.115Z,7.85
2023-04-06T01:24:34.928Z,7.85
2023-04-06T01:27:16.472Z,7.87
2023-04-06T01:30:07.471Z,7.88
2023-04-06T01:32:42.190Z,7.89
2023-04-06T01:35:11.455Z,7.90
2023-04-06T01:37:48.064Z,7.90
2023-04-06T01:40:21.959Z,7.90
2023-04-06T01:42:51.596Z,7.89
2023-04-06T01:45:25.745Z,7.88
2023-04-06T01:47:54.284Z,7.88
2023-04-06T01:50:24.968Z,7.87
2023-04-06T01:52:53.317Z,7.87
2023-04-06T01:55:21.824Z,7.84
2023-04-06T01:58:10.145Z,7.84
2023-04-06T02:00:40.340Z,7.83
2023-04-06T02:03:09.489Z,7.83
2023-04-06T02:05:40.549Z,7.85
2023-04-06T02:08:28.217Z,7.86
2023-04-06T02:10:56.920Z,7.87
2023-04-06T02:13:33.316Z,7.89
2023-04-06T02:16:03.610Z,7.90
2023-04-06T02:18:32.676Z,7.92
2023-04-06T02:21:00.856Z,7.95
2023-04-06T02:23:29.575Z,7.97
2023-04-06T02:25:59.486Z,7.98
2023-04-06T02:28:27.698Z,7.99
2023-04-06T02:30:58.691Z,8.00
2023-04-06T02:33:29.627Z,8.00
2023-04-06T02:35:57.787Z,8.00
2023-04-06T02:38:26.608Z,8.00
2023-04-06T02:40:55.001Z,8.00
2023-04-06T02:43:27.994Z,8.00
2023-04-06T02:46:03.575Z,8.00
2023-04-06T02:48:37.262Z,8.01
2023-04-06T02:51:06.333Z,8.02
2023-04-06T02:53:35.321Z,8.04
2023-04-06T02:56:03.986Z,8.04
2023-04-06T02:58:46.605Z,8.05
2023-04-06T03:01:15.963Z,8.06
2023-04-06T03:03:46.810Z,8.07
2023-04-06T03:06:21.240Z,8.07
2023-04-06T03:08:50.987Z,8.07
2023-04-06T03:11:33.481Z,8.09
2023-04-06T03:16:56.592Z,8.11
2023-04-06T03:19:26.324Z,8.11
2023-04-06T03:24:45.594Z,8.14
2023-04-06T03:27:21.707Z,8.15
2023-04-06T03:30:05.406Z,8.17
2023-04-06T03:32:40.601Z,8.18
2023-04-06T03:35:10.144Z,8.18
2023-04-06T03:37:44.839Z,8.19
2023-04-06T03:40:19.103Z,8.21
2023-04-06T03:42:55.622Z,8.23
2023-04-06T03:45:31.813Z,8.24
2023-04-06T03:48:10.339Z,8.24
2023-04-06T03:50:46.955Z,8.25
2023-04-06T03:53:19.030Z,8.26
2023-04-06T03:56:09.421Z,8.28
2023-04-06T03:58:51.834Z,8.29
2023-04-06T04:01:35.046Z,8.29
2023-04-06T04:04:10.605Z,8.30
2023-04-06T04:07:00.721Z,8.32
2023-04-06T04:09:35.975Z,8.32
2023-04-06T04:12:16.643Z,8.31
2023-04-06T04:15:04.361Z,8.31
2023-04-06T04:17:51.914Z,8.32
2023-04-06T04:20:24.075Z,8.32
2023-04-06T04:22:53.572Z,8.33
2023-04-06T04:25:22.810Z,8.33
2023-04-06T04:28:01.111Z,8.34
2023-04-06T04:30:40.694Z,8.36
2023-04-06T04:33:29.479Z,8.39
2023-04-06T04:36:12.639Z,8.43
2023-04-06T04:39:18.581Z,8.50
2023-04-06T04:42:01.785Z,8.55
2023-04-06T04:44:50.014Z,8.58
2023-04-06T04:47:34.184Z,8.59
2023-04-06T04:50:22.727Z,8.61
2023-04-06T04:53:07.400Z,8.63
2023-04-06T04:56:03.138Z,8.64
2023-04-06T04:58:40.779Z,8.65
2023-04-06T05:01:13.255Z,8.65
2023-04-06T05:03:45.772Z,8.64
2023-04-06T05:06:26.825Z,8.64
2023-04-06T05:09:20.874Z,8.64
2023-04-06T05:12:04.576Z,8.66
2023-04-06T05:14:40.046Z,8.68
2023-04-06T05:17:21.645Z,8.70
2023-04-06T05:19:54.168Z,8.72
2023-04-06T05:22:30.294Z,8.74
2023-04-06T05:25:10.091Z,8.75
2023-04-06T05:27:41.099Z,8.76
2023-04-06T05:30:23.473Z,8.76
2023-04-06T05:32:56.643Z,8.77
2023-04-06T05:35:31.107Z,8.77
2023-04-06T05:38:03.644Z,8.78
2023-04-06T05:40:38.113Z,8.79
2023-04-06T05:43:08.319Z,8.82
2023-04-06T05:45:38.619Z,8.83
2023-04-06T05:48:07.911Z,8.84
2023-04-06T05:50:37.758Z,8.82
2023-04-06T05:53:10.418Z,8.82
2023-04-06T05:55:42.897Z,8.83
2023-04-06T05:58:21.446Z,8.85
2023-04-06T06:01:03.015Z,8.87
2023-04-06T06:03:40.469Z,8.89
2023-04-06T06:06:09.313Z,8.91
2023-04-06T06:09:07.005Z,8.92
2023-04-06T06:11:39.266Z,8.95
2023-04-06T06:14:09.198Z,8.97
2023-04-06T06:16:39.555Z,8.99
2023-04-06T06:19:12.637Z,9.03
2023-04-06T06:21:44.741Z,9.08
2023-04-06T06:24:31.630Z,9.14
2023-04-06T06:27:02.832Z,9.25
2023-04-06T06:29:36.060Z,9.33
2023-04-06T06:32:13.228Z,9.39
2023-04-06T06:34:42.038Z,9.43
2023-04-06T06:37:10.366Z,9.48
2023-04-06T06:39:42.290Z,9.52
2023-04-06T06:42:11.627Z,9.55
2023-04-06T06:45:03.643Z,9.57
2023-04-06T06:47:35.566Z,9.57
2023-04-06T06:50:08.239Z,9.59
2023-04-06T06:52:42.345Z,9.62
2023-04-06T06:55:14.701Z,9.65
2023-04-06T06:57:43.653Z,9.72
2023-04-06T07:00:15.363Z,9.80
2023-04-06T07:02:50.405Z,9.90
2023-04-06T07:05:27.530Z,9.98
2023-04-06T07:07:58.478Z,10.03
2023-04-06T07:10:27.774Z,10.06
2023-04-06T07:12:56.137Z,10.07
2023-04-06T07:15:25.728Z,10.08
2023-04-06T07:17:55.761Z,10.09
2023-04-06T07:20:24.664Z,10.09
2023-04-06T07:22:53.238Z,10.10
2023-04-06T07:25:24.299Z,10.12
2023-04-06T07:27:58.768Z,10.17
2023-04-06T07:30:29.417Z,10.24
2023-04-06T07:33:06.771Z,10.31
2023-04-06T07:35:37.825Z,10.36
2023-04-06T07:38:06.633Z,10.40
2023-04-06T07:40:35.793Z,10.42
2023-04-06T07:43:09.553Z,10.46
2023-04-06T07:45:38.117Z,10.48
2023-04-06T07:48:07.604Z,10.50
2023-04-06T07:50:38.217Z,10.50
2023-04-06T07:53:07.134Z,10.50
2023-04-06T07:55:37.767Z,10.50
2023-04-06T07:58:06.823Z,10.51
2023-04-06T08:00:39.855Z,10.55
2023-04-06T08:03:09.111Z,10.59
2023-04-06T08:05:37.396Z,10.63
2023-04-06T08:08:08.652Z,10.66
2023-04-06T08:10:37.140Z,10.67
2023-04-06T08:13:05.795Z,10.67
2023-04-06T08:15:44.803Z,10.67
2023-04-06T08:18:15.357Z,10.66
2023-04-06T08:20:46.520Z,10.67
2023-04-06T08:23:21.440Z,10.67
2023-04-06T08:25:50.462Z,10.68
2023-04-06T08:28:19.686Z,10.68
2023-04-06T08:30:47.986Z,10.69
2023-04-06T08:33:16.738Z,10.69
2023-04-06T08:35:44.861Z,10.68
2023-04-06T08:38:13.488Z,10.68
2023-04-06T08:40:44.621Z,10.68
2023-04-06T08:43:16.869Z,10.69
2023-04-06T08:45:45.164Z,10.71
2023-04-06T08:48:13.494Z,10.72
2023-04-06T08:50:43.272Z,10.71
2023-04-06T08:53:11.837Z,10.72
2023-04-06T08:55:43.023Z,10.72
2023-04-06T08:58:11.635Z,10.73
2023-04-06T09:00:40.225Z,10.73
2023-04-06T09:03:24.941Z,10.73
2023-04-06T09:05:54.747Z,10.75
2023-04-06T09:08:28.751Z,10.76
2023-04-06T09:10:57.011Z,10.76
2023-04-06T09:13:25.259Z,10.76
2023-04-06T09:16:04.420Z,10.77
2023-04-06T09:18:33.382Z,10.72
2023-04-06T09:21:06.586Z,10.67
2023-04-06T09:23:36.456Z,10.61
2023-04-06T09:26:14.787Z,10.59
2023-04-06T09:28:50.379Z,10.56
2023-04-06T09:31:27.807Z,10.56
2023-04-06T09:33:56.390Z,10.55
2023-04-06T09:36:32.467Z,10.55
2023-04-06T09:39:05.464Z,10.56
2023-04-06T09:41:36.248Z,10.58
2023-04-06T09:44:11.843Z,10.60
2023-04-06T09:46:55.876Z,10.61
2023-04-06T09:49:29.020Z,10.63
2023-04-06T09:52:02.896Z,10.66
2023-04-06T09:54:32.085Z,10.66
2023-04-06T09:57:15.815Z,10.66
2023-04-06T10:00:11.782Z,10.63
2023-04-06T10:03:01.031Z,10.57
2023-04-06T10:05:33.435Z,10.55
2023-04-06T10:08:07.296Z,10.54
2023-04-06T10:10:35.445Z,10.52
2023-04-06T10:13:04.803Z,10.50
2023-04-06T10:15:34.712Z,10.49
2023-04-06T10:18:03.485Z,10.46
2023-04-06T10:20:37.030Z,10.43
2023-04-06T10:23:20.696Z,10.37
2023-04-06T10:26:00.056Z,10.31
2023-04-06T10:28:33.964Z,10.27
2023-04-06T10:31:05.536Z,10.26
2023-04-06T10:33:36.171Z,10.23
2023-04-06T10:36:22.609Z,10.21
2023-04-06T10:38:56.129Z,10.19
2023-04-06T10:41:24.378Z,10.17
2023-04-06T10:43:57.778Z,10.16
2023-04-06T10:46:27.330Z,10.16
2023-04-06T10:48:57.081Z,10.18
2023-04-06T10:51:28.981Z,10.19
2023-04-06T10:53:57.050Z,10.19
2023-04-06T10:56:27.970Z,10.20
2023-04-06T10:58:59.600Z,10.21
2023-04-06T11:01:29.223Z,10.23
2023-04-06T11:04:01.678Z,10.29
2023-04-06T11:06:33.747Z,10.32
2023-04-06T11:09:02.923Z,10.33
2023-04-06T11:11:32.054Z,10.34
2023-04-06T11:14:04.545Z,10.37
2023-04-06T11:16:34.199Z,10.41
2023-04-06T11:19:04.929Z,10.44
2023-04-06T11:21:36.578Z,10.44
2023-04-06T11:24:14.229Z,10.45
2023-04-06T11:27:08.875Z,10.43
2023-04-06T11:29:39.129Z,10.43
2023-04-06T11:32:08.515Z,10.44
2023-04-06T11:34:39.945Z,10.47
2023-04-06T11:37:11.783Z,10.46
2023-04-06T11:39:41.721Z,10.47
2023-04-06T11:42:11.200Z,10.49
2023-04-06T11:44:50.259Z,10.49
2023-04-06T11:47:19.976Z,10.49
2023-04-06T11:49:51.484Z,10.50
2023-04-06T11:52:21.548Z,10.51
2023-04-06T11:54:50.432Z,10.51
2023-04-06T11:57:26.661Z,10.50
2023-04-06T11:59:55.010Z,10.50
2023-04-06T12:02:23.259Z,10.53
2023-04-06T12:04:51.494Z,10.57
2023-04-06T12:07:20.571Z,10.61
2023-04-06T12:09:48.628Z,10.66
2023-04-06T12:12:17.230Z,10.72
2023-04-06T12:14:45.520Z,10.78
2023-04-06T12:17:14.277Z,10.83
2023-04-06T12:19:42.490Z,10.85
2023-04-06T12:22:11.030Z,10.86
2023-04-06T12:24:39.419Z,10.88
2023-04-06T12:27:10.669Z,10.92
2023-04-06T12:29:40.769Z,10.96
2023-04-06T12:32:09.656Z,11.02
2023-04-06T12:34:41.957Z,11.06
2023-04-06T12:37:10.584Z,11.08
2023-04-06T12:39:45.613Z,11.11
2023-04-06T12:42:16.050Z,11.18
2023-04-06T12:44:48.577Z,11.22
2023-04-06T12:47:17.309Z,11.23
2023-04-06T12:49:45.764Z,11.25
2023-04-06T12:52:16.721Z,11.28
2023-04-06T12:54:46.125Z,11.28
2023-04-06T12:57:14.695Z,11.27
2023-04-06T12:59:47.570Z,11.27
2023-04-06T13:02:17.503Z,11.29
2023-04-06T13:04:45.573Z,11.33
2023-04-06T13:07:17.509Z,11.36
2023-04-06T13:09:48.419Z,11.39
2023-04-06T13:12:17.385Z,11.43
2023-04-06T13:14:53.625Z,11.44
2023-04-06T13:17:22.277Z,11.42
2023-04-06T13:19:51.085Z,11.43
2023-04-06T13:22:21.041Z,11.43
2023-04-06T13:24:49.235Z,11.46
2023-04-06T13:27:17.534Z,11.49
2023-04-06T13:29:46.328Z,11.54
2023-04-06T13:32:15.147Z,11.60
2023-04-06T13:34:46.110Z,11.64
2023-04-06T13:37:17.949Z,11.67
2023-04-06T13:39:48.599Z,11.69
2023-04-06T13:42:17.532Z,11.69
2023-04-06T13:44:48.936Z,11.71
2023-04-06T13:47:24.013Z,11.72
2023-04-06T13:49:53.830Z,11.73
2023-04-06T13:52:22.876Z,11.73
2023-04-06T13:54:51.480Z,11.73
2023-04-06T13:57:22.053Z,11.68
2023-04-06T13:59:53.787Z,11.63
2023-04-06T14:02:28.491Z,11.57
2023-04-06T14:04:57.600Z,11.52
2023-04-06T14:07:26.152Z,11.49
2023-04-06T14:09:58.040Z,11.45
2023-04-06T14:12:26.511Z,11.42
2023-04-06T14:14:57.746Z,11.37
2023-04-06T14:17:26.922Z,11.34
2023-04-06T14:20:03.625Z,11.33
2023-04-06T14:22:36.956Z,11.31
2023-04-06T14:25:05.544Z,11.27
2023-04-06T14:27:34.204Z,11.21
2023-04-06T14:30:03.031Z,11.17
2023-04-06T14:32:33.578Z,11.17
2023-04-06T14:35:01.964Z,11.16
2023-04-06T14:37:34.360Z,11.14
2023-04-06T14:40:06.498Z,11.11
2023-04-06T14:42:41.474Z,11.08
2023-04-06T14:45:10.333Z,11.09
2023-04-06T14:47:39.640Z,11.11
2023-04-06T14:50:09.032Z,11.11
2023-04-06T14:52:42.106Z,11.10
2023-04-06T14:55:10.574Z,11.08
2023-04-06T14:57:39.070Z,11.07
2023-04-06T15:00:10.655Z,11.08
2023-04-06T15:02:41.310Z,11.08
2023-04-06T15:05:10.885Z,11.06
2023-04-06T15:07:40.567Z,11.05
2023-04-06T15:10:10.931Z,11.05
2023-04-06T15:12:47.239Z,11.03
2023-04-06T15:15:16.068Z,11.01
2023-04-06T15:17:46.810Z,11.00
2023-04-06T15:20:20.568Z,10.99
2023-04-06T15:22:49.508Z,10.98
2023-04-06T15:25:18.445Z,10.97
2023-04-06T15:27:50.941Z,10.98
2023-04-06T15:30:26.283Z,10.97
2023-04-06T15:33:01.701Z,10.96
2023-04-06T15:35:30.360Z,10.97
2023-04-06T15:38:01.398Z,10.95
2023-04-06T15:40:31.274Z,10.93
2023-04-06T15:43:10.120Z,10.90
2023-04-06T15:45:41.951Z,10.84
2023-04-06T15:48:12.807Z,10.73
2023-04-06T15:50:41.801Z,10.63
2023-04-06T15:53:13.257Z,10.56
2023-04-06T15:55:50.999Z,10.50
2023-04-06T15:58:34.796Z,10.46
2023-04-06T16:01:14.735Z,10.42
2023-04-06T16:03:45.038Z,10.40
2023-04-06T16:06:13.578Z,10.38
2023-04-06T16:08:41.865Z,10.32
2023-04-06T16:11:11.088Z,10.26
2023-04-06T16:13:39.592Z,10.23
2023-04-06T16:16:09.571Z,10.20
2023-04-06T16:18:41.431Z,10.14
2023-04-06T16:21:14.114Z,10.13
2023-04-06T16:23:47.756Z,10.10
2023-04-06T16:26:18.250Z,10.04
2023-04-06T16:28:49.684Z,9.97
2023-04-06T16:31:22.990Z,9.93
2023-04-06T16:33:56.361Z,9.89
2023-04-06T16:36:27.063Z,9.85
2023-04-06T16:38:56.821Z,9.82
2023-04-06T16:41:27.042Z,9.80
2023-04-06T16:43:58.309Z,9.77
2023-04-06T16:46:34.487Z,9.71
2023-04-06T16:49:04.314Z,9.70
2023-04-06T16:51:33.878Z,9.68
2023-04-06T16:54:03.455Z,9.68
2023-04-06T16:56:33.075Z,9.67
2023-04-06T16:59:01.137Z,9.65
2023-04-06T17:01:30.056Z,9.61
2023-04-06T17:03:58.745Z,9.58
2023-04-06T17:06:30.238Z,9.57
2023-04-06T17:09:00.013Z,9.59
2023-04-06T17:11:43.770Z,9.58
2023-04-06T17:14:16.148Z,9.57
2023-04-06T17:16:44.736Z,9.55
2023-04-06T17:19:15.456Z,9.54
2023-04-06T17:21:46.390Z,9.53
2023-04-06T17:24:15.200Z,9.50
2023-04-06T17:26:54.959Z,9.53
2023-04-06T17:29:26.378Z,9.53
2023-04-06T17:31:55.866Z,9.50
2023-04-06T17:34:24.570Z,9.48
2023-04-06T17:36:52.700Z,9.48
2023-04-06T17:39:21.144Z,9.49
2023-04-06T17:41:49.709Z,9.49
2023-04-06T17:44:19.324Z,9.45
2023-04-06T17:46:47.652Z,9.42
2023-04-06T17:49:15.927Z,9.42
2023-04-06T17:51:45.257Z,9.42
2023-04-06T17:54:15.759Z,9.36
2023-04-06T17:56:44.497Z,9.29
2023-04-06T17:59:13.407Z,9.27
2023-04-06T18:01:52.111Z,9.27
2023-04-06T18:04:20.756Z,9.25
2023-04-06T18:06:49.122Z,9.27
2023-04-06T18:09:18.614Z,9.27
2023-04-06T18:11:48.902Z,9.24
2023-04-06T18:14:17.091Z,9.24
2023-04-06T18:16:45.684Z,9.23
2023-04-06T18:19:13.691Z,9.19
2023-04-06T18:21:41.947Z,9.15
2023-04-06T18:24:18.718Z,9.15
2023-04-06T18:26:53.041Z,9.15
2023-04-06T18:29:21.895Z,9.13
2023-04-06T18:31:54.789Z,9.11
2023-04-06T18:34:23.077Z,9.05
2023-04-06T18:36:51.604Z,9.01
2023-04-06T18:39:19.694Z,8.97
2023-04-06T18:41:50.492Z,8.94
2023-04-06T18:44:19.007Z,8.88
2023-04-06T18:46:48.495Z,8.81
2023-04-06T18:49:16.710Z,8.78
2023-04-06T18:51:48.219Z,8.73
2023-04-06T18:54:16.567Z,8.65
2023-04-06T18:56:44.918Z,8.55
2023-04-06T18:59:14.047Z,8.43
2023-04-06T19:01:46.930Z,8.32
2023-04-06T19:04:15.983Z,8.25
2023-04-06T19:06:44.698Z,8.19
2023-04-06T19:09:20.064Z,8.12
2023-04-06T19:11:49.178Z,7.98
2023-04-06T19:14:17.396Z,7.85
2023-04-06T19:16:52.489Z,7.79
2023-04-06T19:19:21.140Z,7.76
2023-04-06T19:21:55.212Z,7.71
2023-04-06T19:24:23.691Z,7.63
2023-04-06T19:26:52.274Z,7.58
2023-04-06T19:29:22.980Z,7.53
2023-04-06T19:31:52.119Z,7.50
2023-04-06T19:34:24.136Z,7.47
2023-04-06T19:36:56.193Z,7.45
2023-04-06T19:39:29.564Z,7.42
2023-04-06T19:41:59.524Z,7.39
2023-04-06T19:44:27.751Z,7.35
2023-04-06T19:46:56.316Z,7.34
2023-04-06T19:49:28.567Z,7.33
2023-04-06T19:57:23.140Z,7.24
2023-04-06T19:59:58.999Z,7.09
2023-04-06T20:02:27.927Z,6.97
2023-04-06T20:04:59.882Z,6.87
2023-04-06T20:07:29.938Z,6.80
2023-04-06T20:10:04.072Z,6.73
2023-04-06T20:12:37.606Z,6.66
2023-04-06T20:15:12.533Z,6.58
2023-04-06T20:17:46.769Z,6.53
2023-04-06T20:20:15.525Z,6.48
2023-04-06T20:22:50.176Z,6.43
2023-04-06T20:25:22.028Z,6.42
2023-04-06T20:27:56.742Z,6.38
2023-04-06T20:30:27.070Z,6.34
2023-04-06T20:33:04.170Z,6.32
2023-04-06T20:35:38.905Z,6.32
2023-04-06T20:38:49.303Z,6.33
2023-04-06T20:41:41.370Z,6.33
2023-04-06T20:44:21.280Z,6.32
2023-04-06T20:46:53.049Z,6.29
2023-04-06T20:49:30.833Z,6.26
2023-04-06T20:52:01.488Z,6.24
2023-04-06T20:54:30.027Z,6.17
2023-04-06T20:56:59.990Z,6.09
2023-04-06T20:59:31.371Z,6.01
2023-04-06T21:02:02.057Z,5.98
2023-04-06T21:04:31.568Z,5.93
2023-04-06T21:06:59.908Z,5.91
2023-04-06T21:09:31.841Z,5.90
2023-04-06T21:12:06.255Z,5.86
2023-04-06T21:14:50.138Z,5.80
2023-04-06T21:17:28.959Z,5.72
2023-04-06T21:19:57.070Z,5.65
2023-04-06T21:22:25.486Z,5.58
2023-04-06T21:24:55.952Z,5.50
2023-04-06T21:27:24.948Z,5.47
2023-04-06T21:29:54.303Z,5.44
2023-04-06T21:32:22.516Z,5.43
2023-04-06T21:34:54.171Z,5.41
2023-04-06T21:37:22.355Z,5.36
2023-04-06T21:39:53.424Z,5.32
2023-04-06T21:42:25.228Z,5.31
2023-04-06T21:44:54.544Z,5.28
2023-04-06T21:47:35.034Z,5.28
2023-04-06T21:50:19.631Z,5.28
2023-04-06T21:52:48.100Z,5.28
2023-04-06T21:55:19.125Z,5.24
2023-04-06T21:57:51.791Z,5.21
2023-04-06T22:00:28.664Z,5.19
2023-04-06T22:02:58.863Z,5.19
2023-04-06T22:05:29.719Z,5.20
2023-04-06T22:08:02.934Z,5.18
2023-04-06T22:10:40.604Z,5.18
2023-04-06T22:13:15.776Z,5.16
2023-04-06T22:15:44.402Z,5.14
2023-04-06T22:18:12.854Z,5.14
2023-04-06T22:20:41.078Z,5.11
2023-04-06T22:23:15.816Z,5.08
2023-04-06T22:25:51.889Z,5.04
2023-04-06T22:28:21.201Z,5.03
2023-04-06T22:30:49.902Z,5.01
2023-04-06T22:33:21.725Z,5.00
2023-04-06T22:35:49.947Z,5.00
2023-04-06T22:38:18.353Z,5.00
2023-04-06T22:40:46.668Z,5.01
2023-04-06T22:43:15.066Z,5.00
2023-04-06T22:45:46.410Z,5.01
2023-04-06T22:48:17.957Z,4.99
2023-04-06T22:50:54.720Z,4.96
2023-04-06T22:53:25.795Z,4.92
2023-04-06T22:55:57.136Z,4.93
2023-04-06T22:58:25.744Z,4.92
2023-04-06T23:00:53.906Z,4.88
2023-04-06T23:03:25.302Z,4.84
2023-04-06T23:05:54.217Z,4.82
2023-04-06T23:08:22.543Z,4.79
2023-04-06T23:10:51.357Z,4.76
2023-04-06T23:13:19.657Z,4.75
2023-04-06T23:15:48.673Z,4.72
2023-04-06T23:18:18.821Z,4.71
2023-04-06T23:20:47.784Z,4.69
2023-04-06T23:23:16.632Z,4.69
2023-04-06T23:25:45.892Z,4.67
2023-04-06T23:28:14.030Z,4.66
2023-04-06T23:30:43.657Z,4.66
2023-04-06T23:33:12.872Z,4.66
2023-04-06T23:35:41.373Z,4.62
2023-04-06T23:38:09.641Z,4.58
2023-04-06T23:40:38.857Z,4.56
2023-04-06T23:43:07.162Z,4.52
2023-04-06T23:45:35.574Z,4.50
2023-04-06T23:48:10.966Z,4.51
2023-04-06T23:50:39.563Z,4.53
2023-04-06T23:53:10.501Z,4.52
2023-04-06T23:55:38.990Z,4.52
2023-04-06T23:58:07.163Z,4.53
